Time;durP1;ratioP1;P1;durP2;ratioP2;P2;SDS_P1;SDS_P2;PMS_P1;PMS_P2;Temp;Humidity;BMP_temperature;BMP_pressure;BME280_temperature;BME280_humidity;BME280_pressure;Samples;Min_cycle;Max_cycle;Signal;HPM_P1;HPM_P2
2022/04/10 00:00:02;;;;;;;5.40;4.90;;;4.60;91.70;;;;;;5046058;28;20478;-45
2022/04/10 00:02:28;;;;;;;8.10;4.63;;;4.60;92.00;;;;;;5047958;28;20486;-45
2022/04/10 00:04:55;;;;;;;8.67;5.20;;;4.60;91.90;;;;;;5044884;28;20487;-45
2022/04/10 00:07:22;;;;;;;7.97;5.10;;;4.50;91.80;;;;;;5046280;28;20476;-45
2022/04/10 00:09:50;;;;;;;14.20;6.37;;;4.20;92.20;;;;;;5047184;28;20482;-45
2022/04/10 00:12:16;;;;;;;7.10;4.80;;;4.20;92.30;;;;;;5046885;28;20481;-45
2022/04/10 00:14:45;;;;;;;5.43;4.90;;;4.20;92.40;;;;;;5041550;28;20483;-45
2022/04/10 00:17:12;;;;;;;12.40;5.80;;;4.30;92.50;;;;;;5046428;28;20653;-45
2022/04/10 00:19:39;;;;;;;6.70;5.67;;;4.30;92.40;;;;;;5047622;28;20565;-45
2022/04/10 00:22:06;;;;;;;7.70;5.50;;;4.20;92.30;;;;;;5048069;28;20482;-46
2022/04/10 00:24:33;;;;;;;6.10;4.60;;;4.00;92.50;;;;;;5043837;28;20491;-45
2022/04/10 00:27:01;;;;;;;9.53;5.23;;;4.00;92.20;;;;;;5048060;28;20487;-45
2022/04/10 00:29:28;;;;;;;5.73;4.73;;;3.80;92.40;;;;;;5035987;28;21103;-44
2022/04/10 00:31:55;;;;;;;9.77;4.77;;;3.80;91.90;;;;;;5045627;28;20472;-45
2022/04/10 00:34:21;;;;;;;7.30;4.90;;;3.60;91.70;;;;;;5043001;28;23069;-44
2022/04/10 00:36:48;;;;;;;7.63;4.37;;;3.50;92.20;;;;;;5047464;28;20490;-45
2022/04/10 00:39:15;;;;;;;8.73;4.60;;;3.50;92.10;;;;;;5047265;28;21186;-44
2022/04/10 00:41:41;;;;;;;7.67;4.60;;;3.60;91.90;;;;;;5048568;28;20482;-45
2022/04/10 00:44:11;;;;;;;7.87;5.60;;;3.60;92.10;;;;;;5038146;28;20484;-44
2022/04/10 00:46:39;;;;;;;9.37;5.80;;;3.70;92.00;;;;;;5045911;28;20489;-45
2022/04/10 00:49:06;;;;;;;6.87;5.27;;;3.60;91.80;;;;;;5035306;28;20480;-45
2022/04/10 00:51:43;;;;;;;7.67;5.23;;;3.50;92.30;;;;;;5046856;28;20482;-45
2022/04/10 00:54:15;;;;;;;7.30;4.30;;;3.60;92.60;;;;;;5043386;28;20839;-45
2022/04/10 00:56:43;;;;;;;6.50;5.17;;;3.80;92.50;;;;;;5049072;28;20483;-44
2022/04/10 00:59:12;;;;;;;24.03;6.33;;;3.80;92.30;;;;;;5045288;28;20798;-45
2022/04/10 01:01:44;;;;;;;9.87;5.40;;;3.90;92.10;;;;;;5046692;28;20494;-45
2022/04/10 01:04:12;;;;;;;9.53;5.17;;;3.90;92.00;;;;;;5042103;28;20487;-47
2022/04/10 01:06:39;;;;;;;8.50;5.27;;;3.90;91.70;;;;;;5047092;28;20808;-45
2022/04/10 01:09:06;;;;;;;6.80;5.17;;;3.90;91.40;;;;;;5047160;28;20480;-44
2022/04/10 01:11:34;;;;;;;6.80;5.70;;;3.90;91.20;;;;;;5046698;28;20590;-45
2022/04/10 01:14:01;;;;;;;13.03;5.40;;;3.80;91.20;;;;;;5044701;28;20679;-44
2022/04/10 01:16:30;;;;;;;7.40;4.70;;;3.60;91.60;;;;;;5047169;28;20487;-44
2022/04/10 01:18:58;;;;;;;10.20;5.17;;;;;;;;;;5056938;28;20481;-44
2022/04/10 01:21:25;;;;;;;8.53;5.27;;;3.40;91.50;;;;;;5058461;28;20478;-44
2022/04/10 01:23:55;;;;;;;10.10;5.40;;;3.40;91.90;;;;;;5045047;28;20641;-44
2022/04/10 01:26:22;;;;;;;9.43;5.30;;;3.40;91.50;;;;;;5046177;28;20484;-44
2022/04/10 01:28:59;;;;;;;6.23;4.77;;;3.30;91.50;;;;;;5047729;28;20492;-44
2022/04/10 01:31:26;;;;;;;9.13;5.20;;;3.20;92.10;;;;;;5046127;28;20481;-45
2022/04/10 01:33:56;;;;;;;11.67;5.50;;;3.30;92.00;;;;;;5043826;28;20496;-44
2022/04/10 01:36:25;;;;;;;6.97;5.20;;;3.30;91.80;;;;;;5046634;28;20486;-44
2022/04/10 01:38:55;;;;;;;8.40;4.83;;;3.20;91.60;;;;;;5048531;28;20955;-45
2022/04/10 01:41:22;;;;;;;5.73;5.23;;;2.90;91.60;;;;;;5064750;28;20936;-44
2022/04/10 01:43:49;;;;;;;6.73;4.80;;;2.80;92.30;;;;;;5048408;28;21070;-44
2022/04/10 01:46:17;;;;;;;5.83;4.07;;;2.80;92.20;;;;;;5048559;28;20825;-44
2022/04/10 01:48:44;;;;;;;5.43;4.40;;;2.80;92.20;;;;;;5049695;28;20483;-44
2022/04/10 01:51:11;;;;;;;6.93;4.53;;;2.80;92.10;;;;;;5031287;28;20570;-45
2022/04/10 01:53:38;;;;;;;6.17;5.57;;;2.90;92.00;;;;;;5026737;28;20488;-44
2022/04/10 01:56:07;;;;;;;6.20;5.30;;;2.70;92.10;;;;;;5032444;28;20836;-44
2022/04/10 01:58:36;;;;;;;6.93;5.07;;;2.60;92.50;;;;;;5027550;28;20486;-45
2022/04/10 02:01:03;;;;;;;5.47;4.27;;;2.60;92.70;;;;;;5034153;28;20976;-44
2022/04/10 02:03:30;;;;;;;10.63;5.83;;;2.70;92.50;;;;;;5016846;28;20477;-44
2022/04/10 02:05:57;;;;;;;14.23;4.90;;;2.60;92.70;;;;;;5019593;28;20484;-44
2022/04/10 02:08:24;;;;;;;10.00;5.60;;;2.50;93.40;;;;;;5031580;28;20992;-44
2022/04/10 02:10:51;;;;;;;9.13;5.40;;;2.50;93.70;;;;;;5045074;28;20507;-44
2022/04/10 02:13:19;;;;;;;8.80;5.57;;;2.40;93.80;;;;;;5050222;28;20480;-44
2022/04/10 02:15:46;;;;;;;6.57;4.90;;;2.40;93.90;;;;;;5040847;28;20488;-44
2022/04/10 02:18:13;;;;;;;7.97;5.47;;;2.40;94.00;;;;;;5046212;28;21769;-44
2022/04/10 02:20:40;;;;;;;6.73;4.90;;;2.50;93.90;;;;;;5047937;28;20487;-44
2022/04/10 02:23:06;;;;;;;20.37;5.90;;;2.40;93.40;;;;;;5050684;28;20985;-44
2022/04/10 02:25:34;;;;;;;8.53;4.57;;;2.50;93.70;;;;;;5043922;28;20821;-44
2022/04/10 02:28:01;;;;;;;5.13;4.50;;;2.60;93.50;;;;;;5049698;28;21854;-44
2022/04/10 02:30:29;;;;;;;17.30;5.07;;;2.70;93.10;;;;;;5050051;28;20479;-44
2022/04/10 02:32:55;;;;;;;7.10;4.47;;;2.70;92.80;;;;;;5049835;28;20500;-45
2022/04/10 02:35:22;;;;;;;4.87;4.43;;;2.70;92.70;;;;;;5042327;28;20486;-45
2022/04/10 02:37:49;;;;;;;19.13;5.73;;;2.50;93.00;;;;;;5048149;28;20865;-45
2022/04/10 02:40:16;;;;;;;9.73;4.93;;;2.40;93.60;;;;;;5047973;28;20484;-44
2022/04/10 02:42:43;;;;;;;8.33;6.27;;;2.50;93.90;;;;;;5049933;28;20493;-44
2022/04/10 02:45:10;;;;;;;15.43;6.30;;;2.60;94.20;;;;;;5042005;28;20479;-44
2022/04/10 02:47:39;;;;;;;4.90;4.40;;;2.70;94.40;;;;;;5043072;28;21224;-46
2022/04/10 02:50:06;;;;;;;6.80;5.40;;;2.70;94.60;;;;;;5046322;28;20487;-45
2022/04/10 02:52:33;;;;;;;10.97;5.73;;;2.70;94.90;;;;;;5047209;28;20479;-44
2022/04/10 02:54:59;;;;;;;6.80;6.10;;;2.70;95.00;;;;;;5058263;28;20540;-45
2022/04/10 02:57:26;;;;;;;7.60;6.50;;;2.80;95.20;;;;;;5042202;28;20480;-45
2022/04/10 02:59:53;;;;;;;6.50;5.47;;;3.00;95.10;;;;;;5036410;28;20569;-45
2022/04/10 03:02:19;;;;;;;10.70;5.50;;;3.10;94.90;;;;;;5063281;28;20507;-45
2022/04/10 03:04:47;;;;;;;7.40;5.90;;;3.30;94.40;;;;;;5037114;28;20879;-45
2022/04/10 03:07:14;;;;;;;11.47;5.67;;;3.40;94.20;;;;;;5061959;28;20475;-45
2022/04/10 03:09:41;;;;;;;9.20;6.40;;;3.40;94.20;;;;;;5022181;28;20760;-45
2022/04/10 03:12:09;;;;;;;8.07;6.03;;;3.50;94.30;;;;;;5022513;28;21006;-44
2022/04/10 03:14:36;;;;;;;12.03;4.83;;;3.60;93.90;;;;;;5021673;28;20481;-45
2022/04/10 03:17:03;;;;;;;7.50;4.90;;;3.60;93.70;;;;;;5030705;28;20974;-44
2022/04/10 03:19:29;;;;;;;11.93;5.93;;;3.70;93.60;;;;;;5035185;28;20490;-45
2022/04/10 03:21:57;;;;;;;7.57;6.33;;;3.60;93.90;;;;;;5060296;28;20515;-45
2022/04/10 03:24:24;;;;;;;8.20;4.80;;;3.60;94.20;;;;;;5051726;28;20472;-44
2022/04/10 03:26:51;;;;;;;7.90;5.80;;;3.60;94.00;;;;;;5043736;28;20486;-45
2022/04/10 03:29:18;;;;;;;16.87;5.30;;;3.70;93.60;;;;;;5061851;28;20477;-46
2022/04/10 03:31:46;;;;;;;10.27;5.50;;;3.70;93.60;;;;;;5049464;28;20486;-45
2022/04/10 03:34:12;;;;;;;7.97;5.73;;;3.70;93.60;;;;;;5058166;28;20490;-52
2022/04/10 03:36:39;;;;;;;13.00;5.37;;;3.70;93.40;;;;;;5047549;28;20468;-44
2022/04/10 03:39:07;;;;;;;9.83;5.60;;;3.70;93.50;;;;;;5040356;28;20897;-45
2022/04/10 03:41:34;;;;;;;8.53;5.30;;;3.70;93.70;;;;;;5042827;28;20485;-45
2022/04/10 03:44:01;;;;;;;11.60;4.90;;;3.70;93.80;;;;;;5036079;28;20496;-45
2022/04/10 03:46:28;;;;;;;6.73;4.80;;;3.70;93.70;;;;;;5032377;28;20472;-44
2022/04/10 03:48:54;;;;;;;7.97;5.70;;;3.70;93.60;;;;;;5038221;28;20501;-45
2022/04/10 03:51:21;;;;;;;9.80;5.73;;;3.70;93.80;;;;;;5048824;28;20487;-44
2022/04/10 03:53:48;;;;;;;12.80;6.77;;;3.70;94.60;;;;;;5043323;28;20528;-45
2022/04/10 03:56:16;;;;;;;9.80;7.10;;;3.60;94.60;;;;;;5047148;28;20499;-45
2022/04/10 03:58:42;;;;;;;15.27;6.17;;;3.60;94.30;;;;;;5047686;28;20531;-44
2022/04/10 04:01:11;;;;;;;7.73;5.43;;;3.70;94.10;;;;;;5050620;28;20474;-45
2022/04/10 04:03:38;;;;;;;6.60;5.47;;;3.80;93.90;;;;;;5035048;28;20491;-45
2022/04/10 04:06:05;;;;;;;9.73;5.93;;;3.80;93.90;;;;;;5023385;28;20476;-44
2022/04/10 04:08:32;;;;;;;10.33;6.40;;;3.80;93.80;;;;;;5022186;28;20547;-45
2022/04/10 04:10:59;;;;;;;10.00;5.53;;;3.80;93.70;;;;;;5021734;28;20500;-45
2022/04/10 04:13:27;;;;;;;8.80;5.70;;;3.80;94.60;;;;;;5021080;28;21093;-45
2022/04/10 04:15:53;;;;;;;12.87;6.00;;;3.70;94.90;;;;;;5019914;28;21500;-45
2022/04/10 04:18:20;;;;;;;6.43;5.40;;;3.70;95.20;;;;;;5021859;28;20492;-45
2022/04/10 04:20:47;;;;;;;8.00;5.27;;;3.70;94.90;;;;;;5021423;28;20496;-46
2022/04/10 04:23:15;;;;;;;8.33;6.20;;;3.50;95.00;;;;;;5011961;28;20541;-45
2022/04/10 04:25:42;;;;;;;8.30;6.07;;;3.60;95.00;;;;;;5023326;28;21028;-45
2022/04/10 04:28:09;;;;;;;11.23;6.23;;;3.60;94.70;;;;;;5024602;28;20478;-44
2022/04/10 04:30:37;;;;;;;7.83;5.80;;;3.60;94.50;;;;;;5018505;28;20549;-45
2022/04/10 04:33:04;;;;;;;5.23;4.73;;;3.70;94.40;;;;;;5028845;28;20856;-45
2022/04/10 04:35:31;;;;;;;14.00;6.13;;;3.80;94.10;;;;;;5020533;28;20501;-44
2022/04/10 04:37:57;;;;;;;8.50;5.83;;;3.80;94.00;;;;;;5021461;28;20531;-44
2022/04/10 04:40:24;;;;;;;9.57;5.83;;;3.80;94.00;;;;;;5033848;28;20938;-45
2022/04/10 04:42:51;;;;;;;15.90;6.90;;;3.90;94.20;;;;;;5041745;28;20486;-44
2022/04/10 04:45:18;;;;;;;7.07;5.60;;;3.90;94.10;;;;;;5047654;28;20493;-45
2022/04/10 04:47:46;;;;;;;6.90;5.73;;;3.90;94.00;;;;;;5029348;28;20858;-44
2022/04/10 04:50:13;;;;;;;9.73;6.10;;;4.00;93.90;;;;;;5038109;28;20478;-45
2022/04/10 04:52:40;;;;;;;7.00;6.03;;;4.00;94.00;;;;;;5026879;28;20503;-44
2022/04/10 04:55:08;;;;;;;8.03;6.70;;;4.00;93.90;;;;;;5035282;28;20477;-44
2022/04/10 04:57:34;;;;;;;15.53;7.53;;;4.10;93.80;;;;;;5026246;28;20535;-45
2022/04/10 05:00:01;;;;;;;10.00;6.77;;;4.10;94.00;;;;;;5013268;28;20485;-45
2022/04/10 05:02:28;;;;;;;8.20;6.80;;;4.10;93.80;;;;;;5031135;28;21058;-45
2022/04/10 05:04:56;;;;;;;12.50;7.30;;;4.00;93.90;;;;;;5024165;28;20489;-45
2022/04/10 05:07:23;;;;;;;10.20;7.10;;;4.00;94.00;;;;;;5025576;28;21032;-45
2022/04/10 05:09:50;;;;;;;8.80;5.90;;;4.00;94.00;;;;;;5025127;28;20555;-45
2022/04/10 05:12:16;;;;;;;11.03;6.10;;;4.00;93.80;;;;;;5020154;28;20958;-46
2022/04/10 05:14:45;;;;;;;7.03;5.77;;;3.90;93.70;;;;;;5016053;28;20488;-45
2022/04/10 05:17:12;;;;;;;11.77;7.23;;;3.80;94.20;;;;;;5024992;28;20468;-45
2022/04/10 05:19:39;;;;;;;13.80;7.13;;;3.70;94.60;;;;;;5028989;28;20487;-45
2022/04/10 05:22:07;;;;;;;14.73;6.93;;;3.80;94.70;;;;;;5037155;28;20587;-45
2022/04/10 05:24:34;;;;;;;10.10;7.67;;;3.80;94.80;;;;;;5049010;28;20482;-45
2022/04/10 05:27:01;;;;;;;10.47;6.90;;;3.80;94.70;;;;;;5034786;28;20542;-45
2022/04/10 05:29:27;;;;;;;12.03;7.23;;;3.80;94.80;;;;;;5017962;28;20588;-45
2022/04/10 05:31:54;;;;;;;9.57;7.30;;;3.80;94.90;;;;;;5034981;28;20483;-45
2022/04/10 05:34:21;;;;;;;11.50;8.10;;;3.90;95.10;;;;;;5022431;28;21024;-45
2022/04/10 05:36:47;;;;;;;14.77;9.87;;;3.80;95.10;;;;;;5025374;28;20498;-44
2022/04/10 05:39:15;;;;;;;16.30;7.67;;;3.80;95.30;;;;;;5042051;28;20460;-45
2022/04/10 05:41:42;;;;;;;13.40;8.20;;;3.70;95.50;;;;;;5043188;28;21206;-45
2022/04/10 05:44:09;;;;;;;15.67;8.90;;;3.60;95.60;;;;;;5047259;28;20487;-45
2022/04/10 05:46:38;;;;;;;14.10;9.00;;;3.60;95.90;;;;;;5056365;28;20564;-45
2022/04/10 05:49:06;;;;;;;17.77;9.23;;;3.60;96.10;;;;;;5046153;28;20515;-49
2022/04/10 05:51:33;;;;;;;10.37;8.20;;;3.70;96.20;;;;;;5050768;28;20603;-45
2022/04/10 05:54:00;;;;;;;9.90;8.50;;;3.90;96.10;;;;;;5040659;28;20486;-44
2022/04/10 05:56:28;;;;;;;19.73;8.97;;;4.10;95.90;;;;;;5057775;28;20912;-45
2022/04/10 05:58:54;;;;;;;14.70;9.00;;;4.20;95.90;;;;;;5056530;28;20830;-45
2022/04/10 06:01:21;;;;;;;10.87;9.20;;;4.30;95.80;;;;;;5050332;28;20484;-46
2022/04/10 06:03:48;;;;;;;16.33;10.33;;;4.40;95.80;;;;;;5048436;28;20818;-45
2022/04/10 06:06:14;;;;;;;17.73;10.87;;;4.50;95.80;;;;;;5039696;28;20798;-45
2022/04/10 06:08:41;;;;;;;14.50;10.60;;;4.60;95.60;;;;;;5043832;28;20496;-44
2022/04/10 06:11:08;;;;;;;17.00;10.20;;;4.80;95.60;;;;;;5045566;28;20491;-44
2022/04/10 06:13:37;;;;;;;17.87;10.60;;;4.80;95.50;;;;;;5058935;28;20479;-44
2022/04/10 06:16:04;;;;;;;18.37;10.73;;;5.00;95.50;;;;;;5042620;28;20480;-44
2022/04/10 06:18:30;;;;;;;18.50;11.10;;;5.10;95.50;;;;;;5064059;28;20988;-44
2022/04/10 06:20:57;;;;;;;18.43;13.37;;;5.20;95.50;;;;;;5060599;28;20495;-44
2022/04/10 06:23:24;;;;;;;17.70;12.33;;;5.30;95.40;;;;;;5041688;28;20493;-44
2022/04/10 06:25:51;;;;;;;16.90;11.77;;;5.40;95.50;;;;;;5052942;28;20568;-45
2022/04/10 06:28:18;;;;;;;17.80;11.77;;;5.40;95.00;;;;;;5043066;28;20492;-44
2022/04/10 06:30:46;;;;;;;17.73;12.03;;;5.30;95.30;;;;;;5054560;28;20572;-44
2022/04/10 06:33:13;;;;;;;22.93;12.50;;;5.20;95.50;;;;;;5042914;28;20487;-45
2022/04/10 06:35:40;;;;;;;17.60;11.50;;;5.20;95.50;;;;;;5039213;28;20523;-44
2022/04/10 06:38:07;;;;;;;21.83;11.80;;;5.10;95.70;;;;;;5036130;28;20523;-45
2022/04/10 06:40:33;;;;;;;30.87;12.70;;;5.00;95.90;;;;;;5037580;28;21256;-44
2022/04/10 06:43:00;;;;;;;17.23;10.67;;;4.90;96.20;;;;;;5042581;28;20476;-44
2022/04/10 06:45:27;;;;;;;20.10;10.63;;;4.90;96.50;;;;;;5029525;28;20460;-45
2022/04/10 06:47:55;;;;;;;18.23;10.40;;;5.00;96.80;;;;;;5024012;28;20481;-45
2022/04/10 06:50:22;;;;;;;18.33;11.30;;;5.10;96.90;;;;;;5029689;28;20504;-45
2022/04/10 06:52:49;;;;;;;21.53;9.67;;;5.00;96.60;;;;;;5040002;28;20940;-44
2022/04/10 06:55:17;;;;;;;19.43;12.50;;;5.00;96.50;;;;;;5020437;28;20496;-44
2022/04/10 06:57:43;;;;;;;18.70;11.67;;;5.00;97.00;;;;;;5024733;28;20547;-44
2022/04/10 07:00:11;;;;;;;13.13;11.00;;;5.00;96.90;;;;;;5022963;28;20511;-44
2022/04/10 07:02:38;;;;;;;15.00;9.77;;;5.10;97.00;;;;;;5022014;28;20488;-45
2022/04/10 07:05:07;;;;;;;15.67;11.50;;;5.10;97.00;;;;;;5020874;28;20477;-44
2022/04/10 07:07:34;;;;;;;17.30;10.07;;;5.20;96.60;;;;;;5022026;28;20506;-44
2022/04/10 07:10:01;;;;;;;14.53;10.90;;;5.20;96.70;;;;;;5028735;28;20859;-44
2022/04/10 07:12:28;;;;;;;12.73;9.60;;;5.10;96.90;;;;;;5043350;28;20472;-44
2022/04/10 07:14:55;;;;;;;26.87;8.97;;;5.30;97.20;;;;;;5036771;28;20476;-44
2022/04/10 07:17:21;;;;;;;16.30;10.00;;;5.40;96.80;;;;;;5043542;28;20495;-44
2022/04/10 07:19:48;;;;;;;16.20;10.03;;;5.30;96.70;;;;;;5031626;28;20550;-44
2022/04/10 07:25:01;;;;;;;18.43;10.00;;;5.40;97.20;;;;;;5024159;28;20562;-44
2022/04/10 07:27:27;;;;;;;13.20;9.53;;;5.50;97.00;;;;;;5042539;28;20559;-44
2022/04/10 07:29:54;;;;;;;21.53;10.03;;;5.50;96.60;;;;;;5048149;28;20506;-45
2022/04/10 07:32:21;;;;;;;12.30;8.17;;;5.70;96.30;;;;;;5061754;28;21183;-45
2022/04/10 07:34:47;;;;;;;11.67;8.53;;;5.70;96.30;;;;;;5046997;28;20907;-45
2022/04/10 07:37:15;;;;;;;16.60;7.60;;;5.90;96.80;;;;;;5042232;28;20477;-44
2022/04/10 07:39:42;;;;;;;9.30;7.20;;;6.00;96.40;;;;;;5039281;28;20494;-44
2022/04/10 07:42:10;;;;;;;11.43;10.13;;;6.10;96.40;;;;;;5043816;28;20484;-45
2022/04/10 07:44:36;;;;;;;14.73;8.93;;;6.10;96.00;;;;;;5044183;28;20480;-45
2022/04/10 07:49:48;;;;;;;27.07;11.00;;;6.10;96.30;;;;;;5053403;28;20469;-45
2022/04/10 07:52:16;;;;;;;6.93;5.60;;;6.10;96.20;;;;;;5034786;28;20496;-45
2022/04/10 07:54:43;;;;;;;16.77;10.30;;;6.10;95.80;;;;;;5031136;28;20513;-44
2022/04/10 07:57:09;;;;;;;23.17;8.57;;;6.20;96.00;;;;;;5061636;28;20495;-44
2022/04/10 07:59:36;;;;;;;11.30;8.40;;;6.30;95.90;;;;;;5041906;28;20548;-45
2022/04/10 08:02:04;;;;;;;11.30;9.10;;;6.40;96.70;;;;;;5030606;28;20473;-45
2022/04/10 08:04:30;;;;;;;17.33;10.00;;;6.40;95.60;;;;;;5024660;28;21067;-45
2022/04/10 08:06:57;;;;;;;12.47;9.40;;;6.60;96.20;;;;;;5025560;28;20484;-45
2022/04/10 08:09:25;;;;;;;11.60;9.40;;;6.70;96.00;;;;;;5046555;28;20484;-45
2022/04/10 08:11:53;;;;;;;15.47;6.50;;;6.90;96.40;;;;;;5035759;28;20482;-45
2022/04/10 08:14:20;;;;;;;14.40;10.83;;;7.00;95.10;;;;;;5023887;28;20771;-45
2022/04/10 08:16:47;;;;;;;7.10;4.87;;;7.00;95.10;;;;;;5021031;28;21451;-45
2022/04/10 08:19:14;;;;;;;12.53;7.13;;;7.30;95.30;;;;;;5021475;28;20479;-45
2022/04/10 08:21:40;;;;;;;10.97;7.97;;;7.40;96.00;;;;;;5021299;28;20486;-45
2022/04/10 08:24:09;;;;;;;10.73;8.87;;;7.40;94.70;;;;;;5016805;28;20517;-46
2022/04/10 08:26:37;;;;;;;15.00;8.97;;;7.50;95.00;;;;;;5019346;28;20518;-45
2022/04/10 08:29:04;;;;;;;11.07;8.20;;;7.70;95.20;;;;;;5021909;28;20495;-46
2022/04/10 08:31:31;;;;;;;11.13;6.57;;;8.00;95.20;;;;;;5023054;28;20481;-47
2022/04/10 08:33:58;;;;;;;13.13;8.07;;;8.40;94.10;;;;;;5019751;28;21005;-46
2022/04/10 08:36:25;;;;;;;14.87;7.50;;;8.50;94.00;;;;;;5020843;28;20476;-53
2022/04/10 08:38:52;;;;;;;6.63;4.80;;;8.60;94.00;;;;;;5022916;28;20482;-46
2022/04/10 08:41:20;;;;;;;13.00;7.20;;;8.90;92.90;;;;;;5035611;28;20477;-46
2022/04/10 08:43:49;;;;;;;10.70;8.00;;;9.00;92.80;;;;;;5024116;28;20482;-45
2022/04/10 08:46:19;;;;;;;8.83;7.47;;;9.20;92.20;;;;;;5024501;28;20873;-46
2022/04/10 08:48:49;;;;;;;12.53;7.43;;;9.20;92.30;;;;;;5021052;28;20479;-46
2022/04/10 08:51:16;;;;;;;7.90;6.50;;;9.10;92.10;;;;;;5020728;28;20475;-46
2022/04/10 08:53:44;;;;;;;22.93;8.47;;;9.20;92.70;;;;;;5022922;28;20484;-46
2022/04/10 08:56:11;;;;;;;8.63;7.80;;;9.40;92.20;;;;;;5022786;28;20499;-45
2022/04/10 08:58:38;;;;;;;9.83;7.47;;;9.30;93.20;;;;;;5027108;28;20500;-45
2022/04/10 09:01:06;;;;;;;15.17;8.23;;;9.50;91.90;;;;;;5025171;28;20566;-45
2022/04/10 09:03:32;;;;;;;8.50;7.20;;;9.60;91.90;;;;;;5023646;28;20491;-46
2022/04/10 09:06:04;;;;;;;11.33;7.30;;;9.90;91.60;;;;;;5019761;28;20509;-45
2022/04/10 09:08:31;;;;;;;16.07;7.97;;;10.50;90.90;;;;;;5031752;28;20477;-45
2022/04/10 09:11:00;;;;;;;9.70;6.83;;;10.80;90.50;;;;;;5025543;28;20476;-46
2022/04/10 09:13:32;;;;;;;9.67;7.50;;;11.10;90.90;;;;;;5025186;28;20484;-46
2022/04/10 09:16:07;;;;;;;9.73;7.43;;;11.20;89.40;;;;;;5023032;28;20483;-46
2022/04/10 09:18:46;;;;;;;8.93;6.37;;;11.30;89.30;;;;;;5024731;28;20500;-47
2022/04/10 09:21:12;;;;;;;12.23;6.90;;;11.30;87.50;;;;;;5024046;28;20551;-46
2022/04/10 09:23:39;;;;;;;9.47;8.37;;;11.30;89.00;;;;;;5025237;28;20483;-45
2022/04/10 09:26:06;;;;;;;10.87;7.40;;;11.20;90.30;;;;;;5023618;28;20486;-46
2022/04/10 09:28:43;;;;;;;10.13;6.27;;;11.20;89.90;;;;;;5024306;28;20486;-48
2022/04/10 09:31:32;;;;;;;7.33;6.67;;;11.30;87.60;;;;;;5024652;28;20792;-46
2022/04/10 09:34:02;;;;;;;8.60;5.17;;;11.10;86.80;;;;;;5040427;28;20973;-45
2022/04/10 09:36:34;;;;;;;8.83;6.67;;;11.20;88.00;;;;;;5025251;28;20840;-45
2022/04/10 09:39:01;;;;;;;13.87;7.57;;;11.10;88.90;;;;;;5022066;28;20488;-45
2022/04/10 09:41:28;;;;;;;8.40;6.03;;;11.20;87.00;;;;;;5028618;28;20484;-45
2022/04/10 09:44:00;;;;;;;9.63;6.90;;;11.20;86.50;;;;;;5025621;28;20494;-45
2022/04/10 09:46:26;;;;;;;7.67;6.73;;;11.70;88.60;;;;;;5049044;28;20997;-45
2022/04/10 09:48:53;;;;;;;9.20;5.60;;;11.90;85.90;;;;;;5052960;28;20889;-46
2022/04/10 09:51:21;;;;;;;9.03;6.40;;;12.20;85.60;;;;;;5047157;28;20595;-46
2022/04/10 09:54:02;;;;;;;7.73;6.60;;;12.30;85.60;;;;;;5045404;28;22846;-45
2022/04/10 09:56:30;;;;;;;10.33;5.47;;;12.40;85.40;;;;;;5009773;28;20534;-50
2022/04/10 09:58:59;;;;;;;13.87;6.77;;;12.50;82.20;;;;;;5024867;28;20484;-45
2022/04/10 10:01:27;;;;;;;12.90;6.30;;;12.40;81.90;;;;;;5017008;28;20473;-45
2022/04/10 10:03:55;;;;;;;11.90;6.50;;;12.20;80.90;;;;;;5021783;28;20487;-45
2022/04/10 10:06:24;;;;;;;13.37;7.27;;;12.10;82.60;;;;;;5021710;28;20506;-45
2022/04/10 10:08:52;;;;;;;12.20;7.30;;;12.10;85.90;;;;;;5028764;28;20473;-45
2022/04/10 10:11:19;;;;;;;14.10;6.23;;;12.00;82.20;;;;;;5022007;28;20486;-46
2022/04/10 10:13:47;;;;;;;14.43;7.47;;;12.00;84.40;;;;;;5038970;28;20857;-45
2022/04/10 10:16:16;;;;;;;8.20;6.90;;;12.00;81.60;;;;;;5054653;28;21195;-46
2022/04/10 10:18:44;;;;;;;11.03;5.90;;;12.10;83.30;;;;;;5023722;28;20482;-45
2022/04/10 10:21:12;;;;;;;5.87;5.27;;;11.80;78.40;;;;;;5025602;28;20491;-45
2022/04/10 10:23:44;;;;;;;5.97;5.37;;;11.80;78.30;;;;;;5047548;28;20491;-45
2022/04/10 10:26:24;;;;;;;11.27;6.53;;;11.70;80.40;;;;;;5024362;28;20491;-45
2022/04/10 10:29:10;;;;;;;7.50;5.70;;;11.60;79.00;;;;;;5024469;28;20999;-46
2022/04/10 10:31:53;;;;;;;6.10;5.50;;;11.60;80.40;;;;;;5024967;28;20490;-45
2022/04/10 10:34:25;;;;;;;7.53;6.30;;;11.60;81.50;;;;;;5020147;28;20495;-45
2022/04/10 10:36:53;;;;;;;8.60;6.27;;;11.60;79.80;;;;;;5023369;28;20821;-45
2022/04/10 10:39:22;;;;;;;12.30;6.70;;;11.60;79.10;;;;;;5040376;28;20479;-45
2022/04/10 10:41:52;;;;;;;9.03;5.93;;;11.70;82.80;;;;;;5023907;28;21084;-45
2022/04/10 10:44:42;;;;;;;10.47;7.00;;;11.90;81.90;;;;;;5028820;28;20487;-46
2022/04/10 10:47:18;;;;;;;12.30;6.03;;;12.10;79.90;;;;;;5043396;28;20485;-46
2022/04/10 10:49:46;;;;;;;9.33;5.97;;;12.30;76.60;;;;;;5048082;28;20491;-45
2022/04/10 10:52:15;;;;;;;7.10;5.90;;;12.20;77.00;;;;;;5040141;28;20478;-45
2022/04/10 10:54:46;;;;;;;6.17;5.47;;;11.90;79.50;;;;;;5045737;28;20837;-45
2022/04/10 10:57:30;;;;;;;6.50;5.23;;;11.70;80.80;;;;;;5042098;28;21190;-47
2022/04/10 11:00:10;;;;;;;8.03;4.43;;;11.30;81.90;;;;;;5049425;28;20456;-45
2022/04/10 11:02:38;;;;;;;9.20;3.90;;;11.10;82.90;;;;;;5042931;28;21000;-46
2022/04/10 11:05:09;;;;;;;10.63;6.00;;;10.80;80.80;;;;;;5046280;28;20490;-46
2022/04/10 11:07:42;;;;;;;12.53;5.03;;;10.70;82.00;;;;;;5043028;28;20489;-45
2022/04/10 11:10:11;;;;;;;5.57;4.53;;;10.60;82.80;;;;;;5035584;28;20577;-45
2022/04/10 11:12:48;;;;;;;7.50;5.57;;;10.50;81.00;;;;;;5052258;28;21053;-45
2022/04/10 11:15:20;;;;;;;7.17;5.33;;;10.50;81.50;;;;;;5015503;28;20540;-46
2022/04/10 11:17:48;;;;;;;11.07;5.30;;;10.50;82.10;;;;;;5024768;28;20490;-46
2022/04/10 11:20:16;;;;;;;6.73;4.83;;;10.60;82.20;;;;;;5037486;28;20879;-46
2022/04/10 11:22:47;;;;;;;7.63;4.23;;;10.50;82.10;;;;;;5044118;28;20481;-45
2022/04/10 11:25:19;;;;;;;4.37;3.97;;;10.40;80.00;;;;;;5042148;28;20481;-46
2022/04/10 11:27:54;;;;;;;5.83;4.53;;;10.50;80.50;;;;;;5035117;28;21248;-45
2022/04/10 11:30:24;;;;;;;6.33;4.70;;;10.60;79.80;;;;;;5024331;28;20482;-46
2022/04/10 11:32:52;;;;;;;5.53;4.03;;;10.80;78.90;;;;;;5027748;28;21159;-45
2022/04/10 11:35:22;;;;;;;6.10;4.60;;;11.40;83.60;;;;;;5022715;28;20845;-46
2022/04/10 11:37:51;;;;;;;8.57;5.00;;;11.80;77.30;;;;;;5028786;28;20494;-46
2022/04/10 11:40:24;;;;;;;6.10;4.10;;;12.00;76.80;;;;;;5033376;28;20500;-46
2022/04/10 11:42:54;;;;;;;8.33;4.20;;;12.30;75.50;;;;;;5048070;28;20591;-45
2022/04/10 11:45:21;;;;;;;11.07;5.23;;;12.30;74.40;;;;;;5044745;28;20530;-46
2022/04/10 11:47:48;;;;;;;5.10;3.33;;;12.30;74.60;;;;;;5041188;28;20833;-45
2022/04/10 11:50:15;;;;;;;7.60;4.37;;;12.10;75.50;;;;;;5044785;28;20818;-45
2022/04/10 11:52:54;;;;;;;7.03;3.70;;;11.90;74.80;;;;;;5044413;28;20489;-46
2022/04/10 11:55:29;;;;;;;21.53;5.07;;;11.90;77.10;;;;;;5020003;28;20486;-46
2022/04/10 11:57:55;;;;;;;6.17;2.47;;;11.80;75.10;;;;;;5026777;28;21056;-46
2022/04/10 12:00:22;;;;;;;8.50;4.30;;;11.70;76.50;;;;;;5033398;28;20486;-45
2022/04/10 12:02:52;;;;;;;8.07;2.90;;;11.50;75.00;;;;;;5047994;28;20489;-46
2022/04/10 12:05:21;;;;;;;3.80;3.00;;;11.50;75.60;;;;;;5042009;28;20823;-46
2022/04/10 12:07:48;;;;;;;5.47;4.60;;;11.40;74.10;;;;;;5047180;28;20486;-46
2022/04/10 12:10:19;;;;;;;14.07;4.40;;;11.30;74.30;;;;;;5046528;28;20515;-45
2022/04/10 12:12:48;;;;;;;3.53;3.20;;;11.30;75.20;;;;;;5037229;28;20486;-45
2022/04/10 12:15:17;;;;;;;6.50;4.23;;;11.20;77.10;;;;;;5036168;28;20495;-46
2022/04/10 12:17:44;;;;;;;5.33;3.73;;;11.20;77.60;;;;;;5044955;28;20484;-46
2022/04/10 12:20:12;;;;;;;8.00;3.70;;;11.20;78.70;;;;;;5044894;28;20474;-46
2022/04/10 12:22:39;;;;;;;4.63;3.83;;;11.20;75.70;;;;;;5046296;28;20930;-46
2022/04/10 12:25:07;;;;;;;9.00;3.53;;;11.30;74.80;;;;;;5044460;28;20486;-45
2022/04/10 12:27:34;;;;;;;6.80;3.93;;;11.30;74.70;;;;;;5047185;28;20519;-46
2022/04/10 12:30:09;;;;;;;12.13;4.47;;;11.30;74.60;;;;;;5034960;28;20492;-46
2022/04/10 12:32:36;;;;;;;5.33;3.80;;;11.30;75.70;;;;;;5045784;28;20485;-45
2022/04/10 12:35:10;;;;;;;7.77;4.23;;;;;;;;;;5041547;28;20480;-46
2022/04/10 12:37:37;;;;;;;5.67;3.40;;;11.50;74.10;;;;;;5043717;28;20492;-51
2022/04/10 12:40:05;;;;;;;3.97;3.57;;;11.70;75.90;;;;;;5043554;28;20648;-46
2022/04/10 12:42:39;;;;;;;4.57;2.97;;;12.20;74.70;;;;;;5045480;28;20501;-46
2022/04/10 12:45:10;;;;;;;5.73;3.40;;;12.40;79.40;;;;;;5032172;28;20480;-46
2022/04/10 12:47:45;;;;;;;4.30;3.43;;;12.60;74.20;;;;;;5032914;28;20478;-47
2022/04/10 12:50:14;;;;;;;13.57;3.83;;;12.50;71.70;;;;;;5044702;28;20539;-46
2022/04/10 12:52:42;;;;;;;6.33;4.27;;;12.60;72.20;;;;;;5045819;28;20485;-46
2022/04/10 12:55:16;;;;;;;5.70;3.70;;;12.80;70.80;;;;;;5045450;28;20507;-46
2022/04/10 12:57:48;;;;;;;4.67;3.40;;;12.70;69.50;;;;;;5044575;28;20478;-47